<?xml version="1.0" encoding="UTF-8" standalone="no" ?>
<gpx xmlns="http://www.topografix.com/GPX/1/1" xmlns:xsi="http://www.w3.org/2001/XMLSchema-instance" xsi:schemaLocation="http://www.topografix.com/GPX/1/1 http://www.topografix.com/GPX/1/1/gpx.xsd" version="1.1" creator="VisuGPX - https://www.visugpx.com">
  <metadata>
    <name>Tour de la Pointe du Raz</name>
    <desc><![CDATA[Tour de la pointe du Ratz depuis Kerherneau]]></desc>
  </metadata>
  <wpt lat="48.04075" lon="-4.70128">
    <ele>73.4</ele>
    <name><![CDATA[Aire de Pique Nique de Lescoff]]></name>
  </wpt>
  <wpt lat="48.03801" lon="-4.70607">
    <ele>58.9</ele>
    <name><![CDATA[Chapelle St Michel]]></name>
  </wpt>
  <wpt lat="48.03454" lon="-4.71242">
    <ele>14.7</ele>
    <name><![CDATA[Jonction avec le GR34]]></name>
  </wpt>
  <wpt lat="48.03408" lon="-4.71729">
    <ele>37.8</ele>
    <name><![CDATA[Route du petit port de Bestrée]]></name>
  </wpt>
  <wpt lat="48.03861" lon="-4.73155">
    <ele>67.3</ele>
    <name><![CDATA[Abri du Sémaphore]]></name>
  </wpt>
  <wpt lat="48.04358" lon="-4.70762">
    <ele>38.3</ele>
    <name><![CDATA[Fin du GR34]]></name>
  </wpt>
  <wpt lat="48.04227" lon="-4.70519">
    <ele>58.4</ele>
    <name><![CDATA[Ancien lavoir]]></name>
  </wpt>
  <wpt lat="48.04075" lon="-4.70129">
    <ele>73.4</ele>
    <name><![CDATA[Aire de Pique Nique de Lescoff]]></name>
  </wpt>
  <trk>
    <name><![CDATA[Pointe du Raz]]></name>
    <extensions>
      <line xmlns="http://www.topografix.com/GPX/gpx_style/0/2">
        <color>0000FF</color>
        <width>4</width>
      </line>
    </extensions>
    <trkseg>
      <trkpt lat="48.04075" lon="-4.70128">
        <ele>73</ele>
        <time>2018-11-07T11:13:38+01:00</time>
      </trkpt>
      <trkpt lat="48.04043" lon="-4.70114">
        <ele>73</ele>
        <time>2018-11-07T11:16:20+01:00</time>
      </trkpt>
      <trkpt lat="48.04032" lon="-4.70128">
        <ele>73</ele>
        <time>2018-11-07T11:16:42+01:00</time>
      </trkpt>
      <trkpt lat="48.04009" lon="-4.70125">
        <ele>72</ele>
        <time>2018-11-07T11:17:01+01:00</time>
      </trkpt>
      <trkpt lat="48.03989" lon="-4.70126">
        <ele>72</ele>
        <time>2021-08-21T18:28:48+02:00</time>
      </trkpt>
      <trkpt lat="48.03987" lon="-4.70145">
        <ele>72</ele>
        <time>2018-11-07T11:17:26+01:00</time>
      </trkpt>
      <trkpt lat="48.03985" lon="-4.7018">
        <ele>72</ele>
        <time>2018-11-07T11:17:47+01:00</time>
      </trkpt>
      <trkpt lat="48.03983" lon="-4.70214">
        <ele>72</ele>
        <time>2018-11-07T11:18:08+01:00</time>
      </trkpt>
      <trkpt lat="48.03979" lon="-4.70247">
        <ele>71</ele>
        <time>2018-11-07T11:18:29+01:00</time>
      </trkpt>
      <trkpt lat="48.03975" lon="-4.7028">
        <ele>72</ele>
        <time>2018-11-07T11:18:49+01:00</time>
      </trkpt>
      <trkpt lat="48.03973" lon="-4.7032">
        <ele>72</ele>
        <time>2018-11-07T11:19:12+01:00</time>
      </trkpt>
      <trkpt lat="48.03971" lon="-4.70355">
        <ele>72</ele>
        <time>2018-11-07T11:19:33+01:00</time>
      </trkpt>
      <trkpt lat="48.03948" lon="-4.70364">
        <ele>71</ele>
        <time>2018-11-07T11:19:59+01:00</time>
      </trkpt>
      <trkpt lat="48.03927" lon="-4.70377">
        <ele>70</ele>
        <time>2018-11-07T11:20:19+01:00</time>
      </trkpt>
      <trkpt lat="48.03915" lon="-4.70383">
        <ele>69</ele>
        <time>2021-08-21T18:29:38+02:00</time>
      </trkpt>
      <trkpt lat="48.03915" lon="-4.70405">
        <ele>69</ele>
        <time>2018-11-07T11:20:47+01:00</time>
      </trkpt>
      <trkpt lat="48.03909" lon="-4.70439">
        <ele>68</ele>
        <time>2018-11-07T11:21:07+01:00</time>
      </trkpt>
      <trkpt lat="48.03903" lon="-4.70471">
        <ele>67</ele>
        <time>2018-11-07T11:21:43+01:00</time>
      </trkpt>
      <trkpt lat="48.03892" lon="-4.70505">
        <ele>66</ele>
        <time>2018-11-07T11:22:24+01:00</time>
      </trkpt>
      <trkpt lat="48.03873" lon="-4.70516">
        <ele>65</ele>
        <time>2018-11-07T11:23:01+01:00</time>
      </trkpt>
      <trkpt lat="48.03853" lon="-4.70531">
        <ele>63</ele>
        <time>2018-11-07T11:23:34+01:00</time>
      </trkpt>
      <trkpt lat="48.03833" lon="-4.70549">
        <ele>62</ele>
        <time>2018-11-07T11:23:57+01:00</time>
      </trkpt>
      <trkpt lat="48.03817" lon="-4.70572">
        <ele>60</ele>
        <time>2018-11-07T11:24:18+01:00</time>
      </trkpt>
      <trkpt lat="48.03801" lon="-4.70607">
        <ele>59</ele>
        <time>2021-08-21T18:30:23+02:00</time>
      </trkpt>
      <trkpt lat="48.03787" lon="-4.70595">
        <ele>57</ele>
        <time>2018-11-07T11:24:38+01:00</time>
      </trkpt>
      <trkpt lat="48.03759" lon="-4.70575">
        <ele>53</ele>
        <time>2021-08-21T18:30:33+02:00</time>
      </trkpt>
      <trkpt lat="48.03741" lon="-4.70649">
        <ele>54</ele>
        <time>2018-11-07T11:26:07+01:00</time>
      </trkpt>
      <trkpt lat="48.03741" lon="-4.70663">
        <ele>55</ele>
        <time>2021-08-21T18:30:43+02:00</time>
      </trkpt>
      <trkpt lat="48.03728" lon="-4.70666">
        <ele>54</ele>
        <time>2018-11-07T11:28:03+01:00</time>
      </trkpt>
      <trkpt lat="48.03708" lon="-4.70682">
        <ele>53</ele>
        <time>2018-11-07T11:28:25+01:00</time>
      </trkpt>
      <trkpt lat="48.03686" lon="-4.70696">
        <ele>52</ele>
        <time>2018-11-07T11:28:48+01:00</time>
      </trkpt>
      <trkpt lat="48.03665" lon="-4.70708">
        <ele>50</ele>
        <time>2018-11-07T11:29:10+01:00</time>
      </trkpt>
      <trkpt lat="48.03653" lon="-4.70715">
        <ele>49</ele>
        <time>2021-08-21T18:31:08+02:00</time>
      </trkpt>
      <trkpt lat="48.03645" lon="-4.70723">
        <ele>49</ele>
        <time>2018-11-07T11:29:40+01:00</time>
      </trkpt>
      <trkpt lat="48.03626" lon="-4.70743">
        <ele>47</ele>
        <time>2018-11-07T11:30:00+01:00</time>
      </trkpt>
      <trkpt lat="48.03609" lon="-4.70765">
        <ele>45</ele>
        <time>2018-11-07T11:30:23+01:00</time>
      </trkpt>
      <trkpt lat="48.03601" lon="-4.7079">
        <ele>45</ele>
        <time>2018-11-07T11:30:59+01:00</time>
      </trkpt>
      <trkpt lat="48.03589" lon="-4.70803">
        <ele>43</ele>
        <time>2018-11-07T11:31:33+01:00</time>
      </trkpt>
      <trkpt lat="48.03577" lon="-4.70828">
        <ele>43</ele>
        <time>2018-11-07T11:32:03+01:00</time>
      </trkpt>
      <trkpt lat="48.0357" lon="-4.70861">
        <ele>42</ele>
        <time>2018-11-07T11:32:23+01:00</time>
      </trkpt>
      <trkpt lat="48.03561" lon="-4.70893">
        <ele>41</ele>
        <time>2018-11-07T11:32:44+01:00</time>
      </trkpt>
      <trkpt lat="48.03555" lon="-4.70925">
        <ele>40</ele>
        <time>2018-11-07T11:33:06+01:00</time>
      </trkpt>
      <trkpt lat="48.03548" lon="-4.70958">
        <ele>37</ele>
        <time>2018-11-07T11:33:31+01:00</time>
      </trkpt>
      <trkpt lat="48.03539" lon="-4.7099">
        <ele>34</ele>
        <time>2018-11-07T11:34:06+01:00</time>
      </trkpt>
      <trkpt lat="48.03536" lon="-4.71025">
        <ele>32</ele>
        <time>2018-11-07T11:34:26+01:00</time>
      </trkpt>
      <trkpt lat="48.03526" lon="-4.71057">
        <ele>30</ele>
        <time>2018-11-07T11:34:47+01:00</time>
      </trkpt>
      <trkpt lat="48.03513" lon="-4.71086">
        <ele>27</ele>
        <time>2018-11-07T11:35:07+01:00</time>
      </trkpt>
      <trkpt lat="48.03495" lon="-4.71108">
        <ele>24</ele>
        <time>2018-11-07T11:35:28+01:00</time>
      </trkpt>
      <trkpt lat="48.03477" lon="-4.7113">
        <ele>22</ele>
        <time>2018-11-07T11:35:53+01:00</time>
      </trkpt>
      <trkpt lat="48.03463" lon="-4.71157">
        <ele>19</ele>
        <time>2018-11-07T11:36:14+01:00</time>
      </trkpt>
      <trkpt lat="48.03454" lon="-4.71189">
        <ele>16</ele>
        <time>2018-11-07T11:36:46+01:00</time>
      </trkpt>
      <trkpt lat="48.03453" lon="-4.71216">
        <ele>15</ele>
        <time>2018-11-07T11:37:38+01:00</time>
      </trkpt>
      <trkpt lat="48.03454" lon="-4.71242">
        <ele>15</ele>
        <time>2018-11-07T11:38:06+01:00</time>
      </trkpt>
      <trkpt lat="48.03452" lon="-4.71255">
        <ele>15</ele>
        <time>2018-11-07T11:38:53+01:00</time>
      </trkpt>
      <trkpt lat="48.03429" lon="-4.7126">
        <ele>12</ele>
        <time>2018-11-07T11:39:41+01:00</time>
      </trkpt>
      <trkpt lat="48.03406" lon="-4.71262">
        <ele>11</ele>
        <time>2018-11-07T11:40:42+01:00</time>
      </trkpt>
      <trkpt lat="48.03383" lon="-4.71264">
        <ele>9</ele>
        <time>2018-11-07T11:41:29+01:00</time>
      </trkpt>
      <trkpt lat="48.03363" lon="-4.7128">
        <ele>9</ele>
        <time>2018-11-07T11:41:55+01:00</time>
      </trkpt>
      <trkpt lat="48.03372" lon="-4.71312">
        <ele>12</ele>
        <time>2018-11-07T11:43:40+01:00</time>
      </trkpt>
      <trkpt lat="48.03386" lon="-4.71339">
        <ele>15</ele>
        <time>2018-11-07T11:43:58+01:00</time>
      </trkpt>
      <trkpt lat="48.03397" lon="-4.7137">
        <ele>17</ele>
        <time>2018-11-07T11:44:19+01:00</time>
      </trkpt>
      <trkpt lat="48.03405" lon="-4.71403">
        <ele>20</ele>
        <time>2018-11-07T11:44:45+01:00</time>
      </trkpt>
      <trkpt lat="48.03412" lon="-4.71436">
        <ele>22</ele>
        <time>2018-11-07T11:45:08+01:00</time>
      </trkpt>
      <trkpt lat="48.03421" lon="-4.71468">
        <ele>25</ele>
        <time>2018-11-07T11:45:58+01:00</time>
      </trkpt>
      <trkpt lat="48.03401" lon="-4.71486">
        <ele>23</ele>
        <time>2018-11-07T11:47:15+01:00</time>
      </trkpt>
      <trkpt lat="48.03384" lon="-4.71507">
        <ele>20</ele>
        <time>2018-11-07T11:48:08+01:00</time>
      </trkpt>
      <trkpt lat="48.03373" lon="-4.71538">
        <ele>20</ele>
        <time>2018-11-07T11:48:33+01:00</time>
      </trkpt>
      <trkpt lat="48.03364" lon="-4.7157">
        <ele>20</ele>
        <time>2018-11-07T11:48:55+01:00</time>
      </trkpt>
      <trkpt lat="48.03351" lon="-4.71599">
        <ele>19</ele>
        <time>2018-11-07T11:49:22+01:00</time>
      </trkpt>
      <trkpt lat="48.03346" lon="-4.71632">
        <ele>20</ele>
        <time>2018-11-07T11:50:07+01:00</time>
      </trkpt>
      <trkpt lat="48.03348" lon="-4.71649">
        <ele>21</ele>
        <time>2021-08-21T18:34:18+02:00</time>
      </trkpt>
      <trkpt lat="48.03356" lon="-4.71662">
        <ele>24</ele>
        <time>2018-11-07T11:51:50+01:00</time>
      </trkpt>
      <trkpt lat="48.03377" lon="-4.71678">
        <ele>29</ele>
        <time>2018-11-07T11:52:15+01:00</time>
      </trkpt>
      <trkpt lat="48.03394" lon="-4.71702">
        <ele>33</ele>
        <time>2018-11-07T11:52:34+01:00</time>
      </trkpt>
      <trkpt lat="48.03408" lon="-4.71729">
        <ele>38</ele>
        <time>2018-11-07T11:52:54+01:00</time>
      </trkpt>
      <trkpt lat="48.03418" lon="-4.71759">
        <ele>40</ele>
        <time>2018-11-07T11:53:18+01:00</time>
      </trkpt>
      <trkpt lat="48.03425" lon="-4.71776">
        <ele>40</ele>
        <time>2021-08-21T18:34:48+02:00</time>
      </trkpt>
      <trkpt lat="48.03427" lon="-4.71791">
        <ele>40</ele>
        <time>2018-11-07T11:53:47+01:00</time>
      </trkpt>
      <trkpt lat="48.03432" lon="-4.71826">
        <ele>39</ele>
        <time>2018-11-07T11:54:11+01:00</time>
      </trkpt>
      <trkpt lat="48.0344" lon="-4.71857">
        <ele>38</ele>
        <time>2018-11-07T11:54:30+01:00</time>
      </trkpt>
      <trkpt lat="48.03454" lon="-4.71886">
        <ele>39</ele>
        <time>2018-11-07T11:55:05+01:00</time>
      </trkpt>
      <trkpt lat="48.03461" lon="-4.71918">
        <ele>40</ele>
        <time>2018-11-07T11:55:25+01:00</time>
      </trkpt>
      <trkpt lat="48.03464" lon="-4.71954">
        <ele>41</ele>
        <time>2018-11-07T11:55:47+01:00</time>
      </trkpt>
      <trkpt lat="48.03457" lon="-4.71985">
        <ele>38</ele>
        <time>2018-11-07T11:56:07+01:00</time>
      </trkpt>
      <trkpt lat="48.03441" lon="-4.72011">
        <ele>33</ele>
        <time>2018-11-07T11:56:38+01:00</time>
      </trkpt>
      <trkpt lat="48.03432" lon="-4.72043">
        <ele>30</ele>
        <time>2018-11-07T11:56:59+01:00</time>
      </trkpt>
      <trkpt lat="48.03434" lon="-4.72077">
        <ele>31</ele>
        <time>2018-11-07T11:57:20+01:00</time>
      </trkpt>
      <trkpt lat="48.03424" lon="-4.72109">
        <ele>27</ele>
        <time>2018-11-07T11:57:43+01:00</time>
      </trkpt>
      <trkpt lat="48.03428" lon="-4.72143">
        <ele>28</ele>
        <time>2018-11-07T12:00:00+01:00</time>
      </trkpt>
      <trkpt lat="48.03435" lon="-4.72175">
        <ele>31</ele>
        <time>2018-11-07T12:00:20+01:00</time>
      </trkpt>
      <trkpt lat="48.03439" lon="-4.7221">
        <ele>31</ele>
        <time>2018-11-07T12:00:40+01:00</time>
      </trkpt>
      <trkpt lat="48.03435" lon="-4.72244">
        <ele>30</ele>
        <time>2018-11-07T12:01:00+01:00</time>
      </trkpt>
      <trkpt lat="48.03426" lon="-4.72276">
        <ele>30</ele>
        <time>2018-11-07T12:01:20+01:00</time>
      </trkpt>
      <trkpt lat="48.03414" lon="-4.72305">
        <ele>31</ele>
        <time>2018-11-07T12:01:38+01:00</time>
      </trkpt>
      <trkpt lat="48.03404" lon="-4.72336">
        <ele>33</ele>
        <time>2018-11-07T12:01:55+01:00</time>
      </trkpt>
      <trkpt lat="48.03395" lon="-4.72368">
        <ele>35</ele>
        <time>2018-11-07T12:02:17+01:00</time>
      </trkpt>
      <trkpt lat="48.0338" lon="-4.72393">
        <ele>33</ele>
        <time>2018-11-07T12:02:42+01:00</time>
      </trkpt>
      <trkpt lat="48.0336" lon="-4.72412">
        <ele>29</ele>
        <time>2018-11-07T12:03:11+01:00</time>
      </trkpt>
      <trkpt lat="48.0334" lon="-4.72426">
        <ele>24</ele>
        <time>2018-11-07T12:03:53+01:00</time>
      </trkpt>
      <trkpt lat="48.03339" lon="-4.7246">
        <ele>27</ele>
        <time>2018-11-07T12:04:22+01:00</time>
      </trkpt>
      <trkpt lat="48.03336" lon="-4.72494">
        <ele>28</ele>
        <time>2018-11-07T12:04:46+01:00</time>
      </trkpt>
      <trkpt lat="48.03339" lon="-4.72528">
        <ele>29</ele>
        <time>2018-11-07T12:05:10+01:00</time>
      </trkpt>
      <trkpt lat="48.03339" lon="-4.72563">
        <ele>29</ele>
        <time>2018-11-07T12:05:35+01:00</time>
      </trkpt>
      <trkpt lat="48.03346" lon="-4.72595">
        <ele>29</ele>
        <time>2018-11-07T12:07:06+01:00</time>
      </trkpt>
      <trkpt lat="48.03354" lon="-4.72628">
        <ele>26</ele>
        <time>2018-11-07T12:07:31+01:00</time>
      </trkpt>
      <trkpt lat="48.03368" lon="-4.72654">
        <ele>27</ele>
        <time>2018-11-07T12:07:58+01:00</time>
      </trkpt>
      <trkpt lat="48.0339" lon="-4.72667">
        <ele>31</ele>
        <time>2018-11-07T12:10:13+01:00</time>
      </trkpt>
      <trkpt lat="48.03411" lon="-4.72681">
        <ele>34</ele>
        <time>2018-11-07T12:10:32+01:00</time>
      </trkpt>
      <trkpt lat="48.03433" lon="-4.72691">
        <ele>36</ele>
        <time>2018-11-07T12:10:50+01:00</time>
      </trkpt>
      <trkpt lat="48.03455" lon="-4.72703">
        <ele>37</ele>
        <time>2018-11-07T12:11:09+01:00</time>
      </trkpt>
      <trkpt lat="48.03477" lon="-4.72717">
        <ele>39</ele>
        <time>2018-11-07T12:11:59+01:00</time>
      </trkpt>
      <trkpt lat="48.03498" lon="-4.7273">
        <ele>42</ele>
        <time>2018-11-07T12:12:17+01:00</time>
      </trkpt>
      <trkpt lat="48.03519" lon="-4.72745">
        <ele>44</ele>
        <time>2018-11-07T12:12:40+01:00</time>
      </trkpt>
      <trkpt lat="48.03542" lon="-4.72753">
        <ele>47</ele>
        <time>2018-11-07T12:13:07+01:00</time>
      </trkpt>
      <trkpt lat="48.03561" lon="-4.72772">
        <ele>48</ele>
        <time>2018-11-07T12:13:27+01:00</time>
      </trkpt>
      <trkpt lat="48.03579" lon="-4.72792">
        <ele>48</ele>
        <time>2018-11-07T12:14:03+01:00</time>
      </trkpt>
      <trkpt lat="48.03597" lon="-4.72813">
        <ele>48</ele>
        <time>2018-11-07T12:14:45+01:00</time>
      </trkpt>
      <trkpt lat="48.03613" lon="-4.72838">
        <ele>48</ele>
        <time>2018-11-07T12:15:20+01:00</time>
      </trkpt>
      <trkpt lat="48.03624" lon="-4.72869">
        <ele>48</ele>
        <time>2018-11-07T12:15:45+01:00</time>
      </trkpt>
      <trkpt lat="48.03626" lon="-4.72902">
        <ele>45</ele>
        <time>2018-11-07T12:16:53+01:00</time>
      </trkpt>
      <trkpt lat="48.0364" lon="-4.7293">
        <ele>47</ele>
        <time>2018-11-07T12:17:15+01:00</time>
      </trkpt>
      <trkpt lat="48.0366" lon="-4.72947">
        <ele>52</ele>
        <time>2018-11-07T12:17:37+01:00</time>
      </trkpt>
      <trkpt lat="48.03673" lon="-4.72974">
        <ele>51</ele>
        <time>2018-11-07T12:17:57+01:00</time>
      </trkpt>
      <trkpt lat="48.03688" lon="-4.73">
        <ele>51</ele>
        <time>2018-11-07T12:18:14+01:00</time>
      </trkpt>
      <trkpt lat="48.03709" lon="-4.73015">
        <ele>53</ele>
        <time>2018-11-07T12:18:34+01:00</time>
      </trkpt>
      <trkpt lat="48.03726" lon="-4.73039">
        <ele>54</ele>
        <time>2018-11-07T12:18:52+01:00</time>
      </trkpt>
      <trkpt lat="48.03737" lon="-4.73069">
        <ele>54</ele>
        <time>2018-11-07T12:19:12+01:00</time>
      </trkpt>
      <trkpt lat="48.03753" lon="-4.73095">
        <ele>55</ele>
        <time>2018-11-07T12:19:34+01:00</time>
      </trkpt>
      <trkpt lat="48.03765" lon="-4.73124">
        <ele>53</ele>
        <time>2018-11-07T12:19:54+01:00</time>
      </trkpt>
      <trkpt lat="48.03778" lon="-4.73152">
        <ele>52</ele>
        <time>2018-11-07T12:20:15+01:00</time>
      </trkpt>
      <trkpt lat="48.03793" lon="-4.73171">
        <ele>54</ele>
        <time>2018-11-07T12:20:37+01:00</time>
      </trkpt>
      <trkpt lat="48.03821" lon="-4.73171">
        <ele>63</ele>
        <time>2018-11-07T12:20:56+01:00</time>
      </trkpt>
      <trkpt lat="48.03844" lon="-4.73179">
        <ele>66</ele>
        <time>2018-11-07T12:21:24+01:00</time>
      </trkpt>
      <trkpt lat="48.0386" lon="-4.73184">
        <ele>66</ele>
        <time>2021-08-21T18:39:33+02:00</time>
      </trkpt>
      <trkpt lat="48.03861" lon="-4.73155">
        <ele>67</ele>
        <time>2018-11-07T12:21:47+01:00</time>
      </trkpt>
      <trkpt lat="48.03861" lon="-4.73156">
        <ele>67</ele>
        <time>2018-11-07T12:43:34+01:00</time>
      </trkpt>
      <trkpt lat="48.03862" lon="-4.73191">
        <ele>66</ele>
        <time>2018-11-07T12:44:19+01:00</time>
      </trkpt>
      <trkpt lat="48.03863" lon="-4.73226">
        <ele>63</ele>
        <time>2018-11-07T12:45:47+01:00</time>
      </trkpt>
      <trkpt lat="48.03875" lon="-4.73257">
        <ele>62</ele>
        <time>2018-11-07T12:46:08+01:00</time>
      </trkpt>
      <trkpt lat="48.03888" lon="-4.73286">
        <ele>61</ele>
        <time>2018-11-07T12:46:29+01:00</time>
      </trkpt>
      <trkpt lat="48.03897" lon="-4.73317">
        <ele>60</ele>
        <time>2018-11-07T12:46:49+01:00</time>
      </trkpt>
      <trkpt lat="48.039" lon="-4.73351">
        <ele>57</ele>
        <time>2018-11-07T12:47:09+01:00</time>
      </trkpt>
      <trkpt lat="48.03904" lon="-4.73385">
        <ele>54</ele>
        <time>2018-11-07T12:47:30+01:00</time>
      </trkpt>
      <trkpt lat="48.03906" lon="-4.73419">
        <ele>51</ele>
        <time>2018-11-07T12:47:52+01:00</time>
      </trkpt>
      <trkpt lat="48.03909" lon="-4.73457">
        <ele>47</ele>
        <time>2018-11-07T12:48:19+01:00</time>
      </trkpt>
      <trkpt lat="48.03912" lon="-4.73482">
        <ele>45</ele>
        <time>2018-11-07T12:49:46+01:00</time>
      </trkpt>
      <trkpt lat="48.03948" lon="-4.7359">
        <ele>35</ele>
        <time>2018-11-07T12:50:08+01:00</time>
      </trkpt>
      <trkpt lat="48.03962" lon="-4.73624">
        <ele>33</ele>
        <time>2021-08-21T18:40:43+02:00</time>
      </trkpt>
      <trkpt lat="48.0398" lon="-4.73704">
        <ele>25</ele>
        <time>2021-08-21T18:40:48+02:00</time>
      </trkpt>
      <trkpt lat="48.03977" lon="-4.73619">
        <ele>36</ele>
        <time>2021-08-21T18:40:53+02:00</time>
      </trkpt>
      <trkpt lat="48.03981" lon="-4.73567">
        <ele>39</ele>
        <time>2021-08-21T18:40:58+02:00</time>
      </trkpt>
      <trkpt lat="48.03978" lon="-4.73544">
        <ele>40</ele>
        <time>2021-08-21T18:41:03+02:00</time>
      </trkpt>
      <trkpt lat="48.03961" lon="-4.7348">
        <ele>45</ele>
        <time>2018-11-07T12:50:29+01:00</time>
      </trkpt>
      <trkpt lat="48.03954" lon="-4.73444">
        <ele>50</ele>
        <time>2018-11-07T12:50:53+01:00</time>
      </trkpt>
      <trkpt lat="48.03954" lon="-4.73425">
        <ele>53</ele>
        <time>2021-08-21T18:41:18+02:00</time>
      </trkpt>
      <trkpt lat="48.03959" lon="-4.73411">
        <ele>54</ele>
        <time>2018-11-07T12:51:14+01:00</time>
      </trkpt>
      <trkpt lat="48.03973" lon="-4.73383">
        <ele>56</ele>
        <time>2018-11-07T12:51:35+01:00</time>
      </trkpt>
      <trkpt lat="48.03982" lon="-4.73352">
        <ele>58</ele>
        <time>2018-11-07T12:51:54+01:00</time>
      </trkpt>
      <trkpt lat="48.03984" lon="-4.73317">
        <ele>60</ele>
        <time>2018-11-07T12:52:15+01:00</time>
      </trkpt>
      <trkpt lat="48.03994" lon="-4.73286">
        <ele>60</ele>
        <time>2018-11-07T12:52:36+01:00</time>
      </trkpt>
      <trkpt lat="48.04006" lon="-4.73258">
        <ele>57</ele>
        <time>2018-11-07T12:52:57+01:00</time>
      </trkpt>
      <trkpt lat="48.04007" lon="-4.73224">
        <ele>57</ele>
        <time>2018-11-07T12:53:18+01:00</time>
      </trkpt>
      <trkpt lat="48.04001" lon="-4.7319">
        <ele>59</ele>
        <time>2018-11-07T12:53:42+01:00</time>
      </trkpt>
      <trkpt lat="48.0399" lon="-4.73161">
        <ele>60</ele>
        <time>2018-11-07T12:54:04+01:00</time>
      </trkpt>
      <trkpt lat="48.03975" lon="-4.73136">
        <ele>61</ele>
        <time>2018-11-07T12:54:27+01:00</time>
      </trkpt>
      <trkpt lat="48.03959" lon="-4.73111">
        <ele>63</ele>
        <time>2018-11-07T12:54:48+01:00</time>
      </trkpt>
      <trkpt lat="48.03948" lon="-4.73079">
        <ele>63</ele>
        <time>2018-11-07T12:55:11+01:00</time>
      </trkpt>
      <trkpt lat="48.03962" lon="-4.73056">
        <ele>62</ele>
        <time>2018-11-07T12:55:35+01:00</time>
      </trkpt>
      <trkpt lat="48.03986" lon="-4.73031">
        <ele>59</ele>
        <time>2018-11-07T12:56:02+01:00</time>
      </trkpt>
      <trkpt lat="48.03995" lon="-4.73004">
        <ele>58</ele>
        <time>2018-11-07T12:56:33+01:00</time>
      </trkpt>
      <trkpt lat="48.03997" lon="-4.7297">
        <ele>58</ele>
        <time>2018-11-07T12:57:06+01:00</time>
      </trkpt>
      <trkpt lat="48.03989" lon="-4.72938">
        <ele>59</ele>
        <time>2018-11-07T12:57:27+01:00</time>
      </trkpt>
      <trkpt lat="48.0399" lon="-4.72903">
        <ele>59</ele>
        <time>2018-11-07T12:57:47+01:00</time>
      </trkpt>
      <trkpt lat="48.03987" lon="-4.72869">
        <ele>58</ele>
        <time>2018-11-07T12:58:09+01:00</time>
      </trkpt>
      <trkpt lat="48.0399" lon="-4.72835">
        <ele>57</ele>
        <time>2018-11-07T12:58:29+01:00</time>
      </trkpt>
      <trkpt lat="48.03995" lon="-4.72801">
        <ele>56</ele>
        <time>2018-11-07T12:59:07+01:00</time>
      </trkpt>
      <trkpt lat="48.03996" lon="-4.72766">
        <ele>56</ele>
        <time>2018-11-07T12:59:28+01:00</time>
      </trkpt>
      <trkpt lat="48.03995" lon="-4.72731">
        <ele>57</ele>
        <time>2018-11-07T12:59:50+01:00</time>
      </trkpt>
      <trkpt lat="48.03998" lon="-4.72697">
        <ele>58</ele>
        <time>2018-11-07T13:00:13+01:00</time>
      </trkpt>
      <trkpt lat="48.03998" lon="-4.72662">
        <ele>59</ele>
        <time>2018-11-07T13:00:35+01:00</time>
      </trkpt>
      <trkpt lat="48.03997" lon="-4.72628">
        <ele>60</ele>
        <time>2018-11-07T13:01:35+01:00</time>
      </trkpt>
      <trkpt lat="48.03999" lon="-4.72594">
        <ele>62</ele>
        <time>2018-11-07T13:01:56+01:00</time>
      </trkpt>
      <trkpt lat="48.04001" lon="-4.7256">
        <ele>62</ele>
        <time>2018-11-07T13:02:16+01:00</time>
      </trkpt>
      <trkpt lat="48.04" lon="-4.72525">
        <ele>63</ele>
        <time>2018-11-07T13:02:36+01:00</time>
      </trkpt>
      <trkpt lat="48.03999" lon="-4.7249">
        <ele>63</ele>
        <time>2018-11-07T13:03:05+01:00</time>
      </trkpt>
      <trkpt lat="48.04005" lon="-4.72458">
        <ele>61</ele>
        <time>2018-11-07T13:03:33+01:00</time>
      </trkpt>
      <trkpt lat="48.04016" lon="-4.72428">
        <ele>56</ele>
        <time>2018-11-07T13:04:11+01:00</time>
      </trkpt>
      <trkpt lat="48.0403" lon="-4.72401">
        <ele>51</ele>
        <time>2018-11-07T13:04:41+01:00</time>
      </trkpt>
      <trkpt lat="48.04034" lon="-4.72366">
        <ele>49</ele>
        <time>2018-11-07T13:05:04+01:00</time>
      </trkpt>
      <trkpt lat="48.04042" lon="-4.72334">
        <ele>46</ele>
        <time>2018-11-07T13:05:43+01:00</time>
      </trkpt>
      <trkpt lat="48.04042" lon="-4.723">
        <ele>47</ele>
        <time>2018-11-07T13:06:10+01:00</time>
      </trkpt>
      <trkpt lat="48.0405" lon="-4.72269">
        <ele>44</ele>
        <time>2018-11-07T13:06:32+01:00</time>
      </trkpt>
      <trkpt lat="48.04053" lon="-4.72235">
        <ele>43</ele>
        <time>2018-11-07T13:06:56+01:00</time>
      </trkpt>
      <trkpt lat="48.04048" lon="-4.72203">
        <ele>42</ele>
        <time>2018-11-07T13:07:17+01:00</time>
      </trkpt>
      <trkpt lat="48.04032" lon="-4.72176">
        <ele>46</ele>
        <time>2018-11-07T13:07:53+01:00</time>
      </trkpt>
      <trkpt lat="48.04023" lon="-4.72145">
        <ele>48</ele>
        <time>2018-11-07T13:08:19+01:00</time>
      </trkpt>
      <trkpt lat="48.04018" lon="-4.7211">
        <ele>49</ele>
        <time>2018-11-07T13:08:44+01:00</time>
      </trkpt>
      <trkpt lat="48.04019" lon="-4.72076">
        <ele>48</ele>
        <time>2018-11-07T13:09:11+01:00</time>
      </trkpt>
      <trkpt lat="48.04023" lon="-4.72042">
        <ele>47</ele>
        <time>2018-11-07T13:09:38+01:00</time>
      </trkpt>
      <trkpt lat="48.04029" lon="-4.72009">
        <ele>46</ele>
        <time>2018-11-07T13:10:20+01:00</time>
      </trkpt>
      <trkpt lat="48.04049" lon="-4.71994">
        <ele>43</ele>
        <time>2018-11-07T13:10:57+01:00</time>
      </trkpt>
      <trkpt lat="48.04072" lon="-4.71989">
        <ele>38</ele>
        <time>2018-11-07T13:11:36+01:00</time>
      </trkpt>
      <trkpt lat="48.04094" lon="-4.71985">
        <ele>33</ele>
        <time>2018-11-07T13:12:26+01:00</time>
      </trkpt>
      <trkpt lat="48.04115" lon="-4.71973">
        <ele>29</ele>
        <time>2018-11-07T13:12:49+01:00</time>
      </trkpt>
      <trkpt lat="48.04137" lon="-4.7196">
        <ele>24</ele>
        <time>2018-11-07T13:13:20+01:00</time>
      </trkpt>
      <trkpt lat="48.0416" lon="-4.71959">
        <ele>17</ele>
        <time>2018-11-07T13:13:39+01:00</time>
      </trkpt>
      <trkpt lat="48.04169" lon="-4.71927">
        <ele>19</ele>
        <time>2018-11-07T13:14:24+01:00</time>
      </trkpt>
      <trkpt lat="48.04172" lon="-4.71894">
        <ele>22</ele>
        <time>2018-11-07T13:14:48+01:00</time>
      </trkpt>
      <trkpt lat="48.04176" lon="-4.7186">
        <ele>22</ele>
        <time>2018-11-07T13:15:08+01:00</time>
      </trkpt>
      <trkpt lat="48.04173" lon="-4.71825">
        <ele>23</ele>
        <time>2018-11-07T13:15:31+01:00</time>
      </trkpt>
      <trkpt lat="48.04159" lon="-4.71797">
        <ele>26</ele>
        <time>2018-11-07T13:16:20+01:00</time>
      </trkpt>
      <trkpt lat="48.04147" lon="-4.71767">
        <ele>28</ele>
        <time>2018-11-07T13:16:49+01:00</time>
      </trkpt>
      <trkpt lat="48.04138" lon="-4.71735">
        <ele>30</ele>
        <time>2018-11-07T13:17:21+01:00</time>
      </trkpt>
      <trkpt lat="48.04129" lon="-4.71704">
        <ele>31</ele>
        <time>2018-11-07T13:17:40+01:00</time>
      </trkpt>
      <trkpt lat="48.04118" lon="-4.71675">
        <ele>35</ele>
        <time>2018-11-07T13:18:09+01:00</time>
      </trkpt>
      <trkpt lat="48.04116" lon="-4.7164">
        <ele>34</ele>
        <time>2018-11-07T13:18:59+01:00</time>
      </trkpt>
      <trkpt lat="48.04115" lon="-4.71606">
        <ele>32</ele>
        <time>2018-11-07T13:19:29+01:00</time>
      </trkpt>
      <trkpt lat="48.04115" lon="-4.71571">
        <ele>29</ele>
        <time>2018-11-07T13:19:58+01:00</time>
      </trkpt>
      <trkpt lat="48.04122" lon="-4.71539">
        <ele>25</ele>
        <time>2018-11-07T13:20:27+01:00</time>
      </trkpt>
      <trkpt lat="48.04123" lon="-4.71505">
        <ele>23</ele>
        <time>2018-11-07T13:21:05+01:00</time>
      </trkpt>
      <trkpt lat="48.0411" lon="-4.71477">
        <ele>28</ele>
        <time>2018-11-07T13:21:36+01:00</time>
      </trkpt>
      <trkpt lat="48.0411" lon="-4.71443">
        <ele>28</ele>
        <time>2018-11-07T13:21:57+01:00</time>
      </trkpt>
      <trkpt lat="48.04119" lon="-4.71411">
        <ele>26</ele>
        <time>2018-11-07T13:22:24+01:00</time>
      </trkpt>
      <trkpt lat="48.04125" lon="-4.71378">
        <ele>27</ele>
        <time>2018-11-07T13:22:45+01:00</time>
      </trkpt>
      <trkpt lat="48.04129" lon="-4.71344">
        <ele>29</ele>
        <time>2018-11-07T13:23:36+01:00</time>
      </trkpt>
      <trkpt lat="48.04127" lon="-4.7131">
        <ele>35</ele>
        <time>2018-11-07T13:25:55+01:00</time>
      </trkpt>
      <trkpt lat="48.04132" lon="-4.71277">
        <ele>39</ele>
        <time>2018-11-07T13:26:26+01:00</time>
      </trkpt>
      <trkpt lat="48.04149" lon="-4.71254">
        <ele>37</ele>
        <time>2018-11-07T13:26:52+01:00</time>
      </trkpt>
      <trkpt lat="48.04164" lon="-4.71229">
        <ele>37</ele>
        <time>2018-11-07T13:27:16+01:00</time>
      </trkpt>
      <trkpt lat="48.04173" lon="-4.71197">
        <ele>42</ele>
        <time>2018-11-07T13:27:52+01:00</time>
      </trkpt>
      <trkpt lat="48.04182" lon="-4.71166">
        <ele>46</ele>
        <time>2018-11-07T13:28:37+01:00</time>
      </trkpt>
      <trkpt lat="48.04204" lon="-4.71153">
        <ele>40</ele>
        <time>2018-11-07T13:29:08+01:00</time>
      </trkpt>
      <trkpt lat="48.04225" lon="-4.71136">
        <ele>35</ele>
        <time>2018-11-07T13:29:33+01:00</time>
      </trkpt>
      <trkpt lat="48.04243" lon="-4.71118">
        <ele>33</ele>
        <time>2018-11-07T13:29:56+01:00</time>
      </trkpt>
      <trkpt lat="48.04252" lon="-4.71085">
        <ele>38</ele>
        <time>2018-11-07T13:30:19+01:00</time>
      </trkpt>
      <trkpt lat="48.04259" lon="-4.71053">
        <ele>42</ele>
        <time>2018-11-07T13:30:43+01:00</time>
      </trkpt>
      <trkpt lat="48.0427" lon="-4.71023">
        <ele>42</ele>
        <time>2018-11-07T13:31:13+01:00</time>
      </trkpt>
      <trkpt lat="48.04272" lon="-4.7099">
        <ele>46</ele>
        <time>2018-11-07T13:31:58+01:00</time>
      </trkpt>
      <trkpt lat="48.04277" lon="-4.70957">
        <ele>47</ele>
        <time>2018-11-07T13:32:33+01:00</time>
      </trkpt>
      <trkpt lat="48.04283" lon="-4.70953">
        <ele>44</ele>
        <time>2021-08-21T18:48:23+02:00</time>
      </trkpt>
      <trkpt lat="48.04291" lon="-4.70946">
        <ele>42</ele>
        <time>2021-08-21T18:48:28+02:00</time>
      </trkpt>
      <trkpt lat="48.043" lon="-4.70946">
        <ele>38</ele>
        <time>2018-11-07T13:36:38+01:00</time>
      </trkpt>
      <trkpt lat="48.04311" lon="-4.70921">
        <ele>37</ele>
        <time>2018-11-07T13:36:59+01:00</time>
      </trkpt>
      <trkpt lat="48.0432" lon="-4.70881">
        <ele>39</ele>
        <time>2018-11-07T13:37:24+01:00</time>
      </trkpt>
      <trkpt lat="48.04328" lon="-4.70862">
        <ele>39</ele>
        <time>2018-11-07T13:38:00+01:00</time>
      </trkpt>
      <trkpt lat="48.04339" lon="-4.70826">
        <ele>40</ele>
        <time>2018-11-07T13:38:34+01:00</time>
      </trkpt>
      <trkpt lat="48.04349" lon="-4.70793">
        <ele>39</ele>
        <time>2018-11-07T13:38:59+01:00</time>
      </trkpt>
      <trkpt lat="48.04358" lon="-4.70762">
        <ele>39</ele>
        <time>2018-11-07T13:39:19+01:00</time>
      </trkpt>
      <trkpt lat="48.04352" lon="-4.70748">
        <ele>42</ele>
        <time>2018-11-07T13:40:44+01:00</time>
      </trkpt>
      <trkpt lat="48.0434" lon="-4.70744">
        <ele>46</ele>
        <time>2018-11-07T13:41:09+01:00</time>
      </trkpt>
      <trkpt lat="48.04289" lon="-4.70743">
        <ele>55</ele>
        <time>2018-11-07T13:41:36+01:00</time>
      </trkpt>
      <trkpt lat="48.04266" lon="-4.70738">
        <ele>58</ele>
        <time>2018-11-07T13:42:24+01:00</time>
      </trkpt>
      <trkpt lat="48.04273" lon="-4.70707">
        <ele>57</ele>
        <time>2018-11-07T13:43:18+01:00</time>
      </trkpt>
      <trkpt lat="48.04277" lon="-4.70661">
        <ele>56</ele>
        <time>2018-11-07T13:43:39+01:00</time>
      </trkpt>
      <trkpt lat="48.04275" lon="-4.70625">
        <ele>55</ele>
        <time>2018-11-07T13:44:05+01:00</time>
      </trkpt>
      <trkpt lat="48.04279" lon="-4.70589">
        <ele>53</ele>
        <time>2018-11-07T13:44:25+01:00</time>
      </trkpt>
      <trkpt lat="48.04276" lon="-4.70579">
        <ele>53</ele>
        <time>2018-11-07T13:45:32+01:00</time>
      </trkpt>
      <trkpt lat="48.04254" lon="-4.70554">
        <ele>55</ele>
        <time>2018-11-07T13:45:54+01:00</time>
      </trkpt>
      <trkpt lat="48.04238" lon="-4.70528">
        <ele>57</ele>
        <time>2018-11-07T13:46:14+01:00</time>
      </trkpt>
      <trkpt lat="48.04227" lon="-4.70519">
        <ele>58</ele>
        <time>2018-11-07T13:48:28+01:00</time>
      </trkpt>
      <trkpt lat="48.04222" lon="-4.70482">
        <ele>59</ele>
        <time>2018-11-07T13:48:56+01:00</time>
      </trkpt>
      <trkpt lat="48.04223" lon="-4.70451">
        <ele>59</ele>
        <time>2018-11-07T13:49:34+01:00</time>
      </trkpt>
      <trkpt lat="48.04225" lon="-4.70429">
        <ele>59</ele>
        <time>2021-08-21T18:50:18+02:00</time>
      </trkpt>
      <trkpt lat="48.04222" lon="-4.70414">
        <ele>60</ele>
        <time>2018-11-07T13:50:17+01:00</time>
      </trkpt>
      <trkpt lat="48.04216" lon="-4.70383">
        <ele>61</ele>
        <time>2018-11-07T13:50:39+01:00</time>
      </trkpt>
      <trkpt lat="48.04226" lon="-4.70341">
        <ele>60</ele>
        <time>2018-11-07T13:51:02+01:00</time>
      </trkpt>
      <trkpt lat="48.04205" lon="-4.70327">
        <ele>63</ele>
        <time>2018-11-07T13:51:35+01:00</time>
      </trkpt>
      <trkpt lat="48.04188" lon="-4.70306">
        <ele>66</ele>
        <time>2018-11-07T13:51:58+01:00</time>
      </trkpt>
      <trkpt lat="48.04173" lon="-4.70279">
        <ele>67</ele>
        <time>2018-11-07T13:52:22+01:00</time>
      </trkpt>
      <trkpt lat="48.04148" lon="-4.70289">
        <ele>70</ele>
        <time>2018-11-07T13:52:48+01:00</time>
      </trkpt>
      <trkpt lat="48.04128" lon="-4.70287">
        <ele>71</ele>
        <time>2018-11-07T13:53:20+01:00</time>
      </trkpt>
      <trkpt lat="48.04126" lon="-4.70253">
        <ele>71</ele>
        <time>2018-11-07T13:54:20+01:00</time>
      </trkpt>
      <trkpt lat="48.04127" lon="-4.70218">
        <ele>71</ele>
        <time>2018-11-07T13:54:42+01:00</time>
      </trkpt>
      <trkpt lat="48.0413" lon="-4.70178">
        <ele>70</ele>
        <time>2018-11-07T13:55:14+01:00</time>
      </trkpt>
      <trkpt lat="48.04126" lon="-4.70171">
        <ele>70</ele>
        <time>2021-08-21T18:51:18+02:00</time>
      </trkpt>
      <trkpt lat="48.04123" lon="-4.70156">
        <ele>71</ele>
        <time>2018-11-07T13:55:40+01:00</time>
      </trkpt>
      <trkpt lat="48.04092" lon="-4.70147">
        <ele>73</ele>
        <time>2021-08-21T18:51:28+02:00</time>
      </trkpt>
      <trkpt lat="48.04084" lon="-4.70137">
        <ele>74</ele>
        <time>2021-08-21T18:51:33+02:00</time>
      </trkpt>
      <trkpt lat="48.04075" lon="-4.70129">
        <ele>73</ele>
        <time>2018-11-07T13:56:26+01:00</time>
      </trkpt>
    </trkseg>
  </trk>
</gpx>